Time;durP1;ratioP1;P1;durP2;ratioP2;P2;SDS_P1;SDS_P2;PMS_P1;PMS_P2;Temp;Humidity;BMP_temperature;BMP_pressure;BME280_temperature;BME280_humidity;BME280_pressure;Samples;Min_cycle;Max_cycle;Signal;HPM_P1;HPM_P2
2021/12/15 00:01:13;;;;;;;9.43;4.53;;;11.00;99.90;;;;;;4986249;28;20475;-73
2021/12/15 00:03:42;;;;;;;8.98;4.75;;;11.00;99.90;;;;;;5017735;28;20050;-73
2021/12/15 00:06:13;;;;;;;9.23;4.35;;;11.00;99.90;;;;;;4986810;28;20055;-74
2021/12/15 00:08:41;;;;;;;8.52;4.18;;;11.00;99.90;;;;;;4986488;28;20046;-74
2021/12/15 00:11:09;;;;;;;7.95;4.00;;;11.00;99.90;;;;;;4986431;28;20514;-74
2021/12/15 00:13:38;;;;;;;;;;;11.00;99.90;;;;;;4985768;28;20050;-73
2021/12/15 00:16:08;;;;;;;8.10;4.13;;;11.00;99.90;;;;;;4969233;28;19926;-72
2021/12/15 00:18:41;;;;;;;8.25;4.07;;;11.10;99.90;;;;;;4986351;28;20054;-74
2021/12/15 00:21:11;;;;;;;7.68;4.20;;;11.10;99.90;;;;;;4986183;28;20046;-74
2021/12/15 00:23:40;;;;;;;6.35;3.90;;;11.10;99.90;;;;;;4984986;28;20050;-75
2021/12/15 00:26:08;;;;;;;6.30;4.45;;;11.10;99.90;;;;;;4986556;28;20050;-74
2021/12/15 00:28:36;;;;;;;;;;;11.10;99.90;;;;;;4986307;28;20066;-74
2021/12/15 00:31:05;;;;;;;11.68;5.00;;;11.10;99.90;;;;;;4985223;28;19926;-74
2021/12/15 00:33:34;;;;;;;10.18;4.88;;;11.10;99.90;;;;;;4986332;28;20061;-74
2021/12/15 00:36:03;;;;;;;9.65;5.25;;;11.00;99.90;;;;;;4986308;28;20507;-74
2021/12/15 00:38:31;;;;;;;9.88;5.63;;;11.00;99.90;;;;;;4984898;28;20042;-75
2021/12/15 00:40:59;;;;;;;11.05;5.10;;;10.90;99.90;;;;;;4984857;28;20046;-74
2021/12/15 00:43:27;;;;;;;14.18;5.47;;;10.90;99.90;;;;;;4967917;28;20061;-74
2021/12/15 00:45:55;;;;;;;10.35;5.68;;;10.90;99.90;;;;;;4989698;28;20554;-74
2021/12/15 00:48:23;;;;;;;;;;;10.70;99.90;;;;;;4990463;28;20042;-75
2021/12/15 00:50:51;;;;;;;10.75;5.38;;;10.80;99.90;;;;;;4989534;28;19948;-75
2021/12/15 00:53:19;;;;;;;;;;;10.80;99.90;;;;;;4988906;28;20073;-75
2021/12/15 00:55:47;;;;;;;12.23;5.32;;;10.80;99.90;;;;;;5004706;28;19932;-74
2021/12/15 00:58:15;;;;;;;8.50;5.05;;;10.80;99.90;;;;;;5004698;28;20050;-75
2021/12/15 01:00:52;;;;;;;8.70;5.78;;;10.80;99.90;;;;;;5004556;28;20807;-74
2021/12/15 01:03:21;;;;;;;8.15;5.50;;;10.80;99.90;;;;;;4988462;28;20054;-73
2021/12/15 01:05:52;;;;;;;8.45;5.63;;;10.80;99.90;;;;;;4989699;28;20046;-73
2021/12/15 01:08:25;;;;;;;10.90;5.63;;;10.80;99.90;;;;;;4988218;28;20051;-73
2021/12/15 01:21:47;;;;;;;13.55;5.72;;;10.70;99.90;;;;;;5000947;28;20051;-74
2021/12/15 01:24:15;;;;;;;9.07;5.30;;;10.70;99.90;;;;;;4988473;28;20063;-74
2021/12/15 01:26:43;;;;;;;;;;;10.60;99.90;;;;;;4988447;28;20046;-73
2021/12/15 01:29:10;;;;;;;9.93;5.40;;;10.70;99.90;;;;;;5003986;28;19926;-74
2021/12/15 01:31:38;;;;;;;10.40;5.78;;;10.70;99.90;;;;;;4988198;28;20502;-73
2021/12/15 01:34:06;;;;;;;9.02;5.38;;;10.70;99.90;;;;;;4989218;28;20050;-74
2021/12/15 01:36:34;;;;;;;11.10;5.40;;;10.70;99.90;;;;;;4987540;28;20058;-74
2021/12/15 01:39:04;;;;;;;10.57;5.25;;;10.70;99.90;;;;;;4988343;28;20043;-74
2021/12/15 01:41:32;;;;;;;9.02;5.13;;;10.70;99.90;;;;;;5003700;28;20046;-74
2021/12/15 01:46:59;;;;;;;11.63;4.72;;;10.80;99.90;;;;;;5019988;28;20058;-73
2021/12/15 01:49:32;;;;;;;11.52;5.20;;;10.80;99.90;;;;;;4987352;28;20484;-73
2021/12/15 01:52:23;;;;;;;10.27;5.05;;;10.80;99.90;;;;;;4987433;28;20046;-74
2021/12/15 01:54:55;;;;;;;12.55;4.20;;;10.90;99.90;;;;;;4986789;28;20073;-73
2021/12/15 01:57:27;;;;;;;12.13;4.68;;;10.90;99.90;;;;;;4988132;28;20047;-74
2021/12/15 01:59:57;;;;;;;7.78;4.10;;;10.90;99.90;;;;;;4987152;28;20057;-74
2021/12/15 02:02:25;;;;;;;6.60;4.13;;;10.90;99.90;;;;;;4988642;28;20050;-74
2021/12/15 02:04:54;;;;;;;10.63;4.38;;;11.00;99.90;;;;;;4986273;28;20046;-73
2021/12/15 02:07:23;;;;;;;;;;;11.00;99.90;;;;;;4984240;28;20066;-74
2021/12/15 02:12:25;;;;;;;9.02;4.97;;;10.90;99.90;;;;;;4981326;28;20042;-74
2021/12/15 02:14:54;;;;;;;10.98;5.30;;;10.90;99.90;;;;;;4987139;28;20391;-73
2021/12/15 02:17:21;;;;;;;;;;;11.00;99.90;;;;;;4988714;28;20057;-73
2021/12/15 02:19:50;;;;;;;11.25;5.30;;;10.90;99.90;;;;;;5019483;28;20417;-73
2021/12/15 02:22:18;;;;;;;12.18;5.80;;;10.90;99.90;;;;;;5003147;28;20042;-73
2021/12/15 02:24:50;;;;;;;10.45;5.10;;;10.90;99.90;;;;;;4986869;28;20399;-73
2021/12/15 02:27:18;;;;;;;11.57;5.63;;;11.00;99.90;;;;;;4986901;28;20623;-73
2021/12/15 02:29:50;;;;;;;12.38;5.30;;;10.90;99.90;;;;;;4987924;28;20050;-72
2021/12/15 02:32:37;;;;;;;10.82;5.30;;;10.90;99.90;;;;;;4987797;28;20038;-74
2021/12/15 02:37:35;;;;;;;12.55;5.13;;;10.90;99.90;;;;;;5002340;28;20085;-73
2021/12/15 02:40:09;;;;;;;10.70;5.00;;;10.90;99.90;;;;;;4986349;28;20387;-73
2021/12/15 02:42:42;;;;;;;10.38;4.90;;;10.90;99.90;;;;;;4987842;28;20422;-73
2021/12/15 02:45:13;;;;;;;8.65;4.45;;;10.90;99.90;;;;;;4978335;28;20051;-73
2021/12/15 02:47:41;;;;;;;9.98;4.47;;;10.90;99.90;;;;;;4994782;28;20065;-72
2021/12/15 02:50:13;;;;;;;9.05;4.03;;;10.90;99.90;;;;;;4987453;28;20057;-72
2021/12/15 02:52:43;;;;;;;8.85;3.85;;;11.00;99.90;;;;;;5002897;28;20061;-72
2021/12/15 02:55:12;;;;;;;;;;;11.00;99.90;;;;;;4971150;28;20057;-73
2021/12/15 02:57:40;;;;;;;10.45;3.78;;;11.00;99.90;;;;;;5019727;28;19929;-72
2021/12/15 03:00:24;;;;;;;9.07;4.18;;;11.10;99.90;;;;;;4988094;28;20061;-73
2021/12/15 03:03:28;;;;;;;7.15;3.72;;;11.10;99.90;;;;;;4987434;28;20055;-74
2021/12/15 03:05:58;;;;;;;7.93;3.90;;;11.10;99.90;;;;;;5002620;28;20901;-72
2021/12/15 03:08:48;;;;;;;10.25;3.40;;;11.10;99.90;;;;;;4985958;28;20054;-73
2021/12/15 03:16:47;;;;;;;8.50;3.40;;;11.10;99.90;;;;;;4986268;28;20062;-72
2021/12/15 03:19:16;;;;;;;9.35;4.13;;;11.20;99.90;;;;;;4970618;28;20080;-73
2021/12/15 03:21:43;;;;;;;10.82;3.58;;;11.20;99.90;;;;;;4986318;28;20053;-72
2021/12/15 03:24:18;;;;;;;9.63;3.58;;;11.20;99.90;;;;;;4986898;28;20508;-73
2021/12/15 03:26:56;;;;;;;5.53;2.40;;;11.20;99.90;;;;;;4987857;28;20065;-73
2021/12/15 03:37:35;;;;;;;7.65;2.72;;;11.30;99.90;;;;;;4987624;28;20061;-73
2021/12/15 03:40:18;;;;;;;6.47;2.45;;;11.30;99.90;;;;;;5002764;28;20054;-73
2021/12/15 03:42:50;;;;;;;6.57;2.28;;;11.30;99.90;;;;;;5018986;28;20068;-73
2021/12/15 03:45:26;;;;;;;8.02;2.22;;;11.30;99.90;;;;;;4986068;28;20051;-73
2021/12/15 03:47:56;;;;;;;7.18;1.98;;;11.30;99.90;;;;;;4985954;28;20072;-73
2021/12/15 03:50:26;;;;;;;6.85;1.98;;;11.30;99.90;;;;;;4987404;28;20053;-73
2021/12/15 03:52:54;;;;;;;5.82;1.90;;;11.30;99.90;;;;;;4986002;28;20042;-73
2021/12/15 03:55:28;;;;;;;6.90;2.22;;;11.30;99.90;;;;;;4987260;28;20081;-73
2021/12/15 03:57:58;;;;;;;5.25;1.90;;;11.30;99.90;;;;;;4985751;28;20546;-74
2021/12/15 04:00:30;;;;;;;6.40;2.25;;;11.30;99.90;;;;;;4986131;28;20073;-73
2021/12/15 04:02:58;;;;;;;5.35;1.95;;;11.30;99.90;;;;;;4987548;28;20058;-73
2021/12/15 04:05:26;;;;;;;6.40;2.15;;;11.30;99.90;;;;;;4985210;28;20057;-73
2021/12/15 04:07:55;;;;;;;6.30;1.80;;;11.30;99.90;;;;;;4967911;28;20051;-73
2021/12/15 04:10:25;;;;;;;6.35;1.88;;;11.30;99.90;;;;;;4967654;28;20047;-73
2021/12/15 04:12:53;;;;;;;5.93;1.92;;;11.30;99.90;;;;;;4984373;28;20058;-73
2021/12/15 04:18:03;;;;;;;5.95;1.88;;;11.30;99.90;;;;;;5018504;28;20054;-73
2021/12/15 04:20:33;;;;;;;8.15;1.63;;;11.30;99.90;;;;;;4987837;28;20054;-73
2021/12/15 04:23:02;;;;;;;10.18;2.10;;;11.30;99.90;;;;;;4982462;28;20443;-73
2021/12/15 04:25:34;;;;;;;6.25;1.50;;;11.40;99.90;;;;;;5002878;28;20062;-73
2021/12/15 04:28:12;;;;;;;5.95;2.05;;;11.40;99.90;;;;;;4971394;28;20051;-73
2021/12/15 04:30:45;;;;;;;7.03;1.85;;;11.40;99.90;;;;;;4969150;28;20055;-73
2021/12/15 04:33:19;;;;;;;6.70;1.90;;;11.40;99.90;;;;;;4977159;28;20487;-73
2021/12/15 04:35:46;;;;;;;5.20;1.60;;;11.40;99.90;;;;;;4990083;28;20046;-74
2021/12/15 04:38:14;;;;;;;9.25;1.67;;;11.40;99.90;;;;;;4990871;28;20069;-73
2021/12/15 04:40:43;;;;;;;4.57;1.35;;;11.40;99.90;;;;;;4990967;28;20050;-72
2021/12/15 04:43:11;;;;;;;6.90;1.65;;;11.40;99.90;;;;;;5022016;28;20051;-72
2021/12/15 04:45:39;;;;;;;4.60;1.10;;;11.40;99.90;;;;;;5021853;28;20054;-73
2021/12/15 04:48:08;;;;;;;6.45;1.20;;;11.50;99.90;;;;;;4989227;28;20050;-73
2021/12/15 04:50:37;;;;;;;4.40;1.38;;;11.50;99.90;;;;;;4989138;28;20438;-73
2021/12/15 04:53:07;;;;;;;5.50;1.50;;;11.50;99.90;;;;;;4989376;28;20058;-73
2021/12/15 04:55:36;;;;;;;4.25;1.42;;;11.50;99.90;;;;;;4989338;28;20054;-73
2021/12/15 04:58:08;;;;;;;5.28;1.55;;;11.50;99.90;;;;;;4989974;28;20046;-73
2021/12/15 05:00:42;;;;;;;10.23;1.63;;;11.50;99.90;;;;;;4989372;28;20050;-73
2021/12/15 05:03:10;;;;;;;3.95;1.60;;;11.50;99.90;;;;;;4989107;28;20058;-73
2021/12/15 05:05:38;;;;;;;8.18;1.85;;;11.50;99.90;;;;;;5005228;28;20053;-73
2021/12/15 05:08:07;;;;;;;4.85;1.95;;;11.50;99.90;;;;;;4988820;28;20054;-73
2021/12/15 05:10:36;;;;;;;7.65;1.80;;;11.50;99.90;;;;;;4983180;28;20113;-73
2021/12/15 05:13:05;;;;;;;5.72;1.90;;;11.40;99.90;;;;;;4989280;28;20466;-73
2021/12/15 05:15:35;;;;;;;8.35;1.92;;;11.40;99.90;;;;;;4988845;28;20046;-73
2021/12/15 05:18:05;;;;;;;7.90;1.80;;;11.40;99.90;;;;;;4989972;28;20050;-73
2021/12/15 05:20:35;;;;;;;6.22;2.00;;;11.40;99.90;;;;;;4989385;28;20051;-74
2021/12/15 05:23:03;;;;;;;8.43;2.42;;;11.40;99.90;;;;;;5005071;28;20054;-73
2021/12/15 05:25:32;;;;;;;6.35;2.20;;;11.40;99.90;;;;;;4972375;28;20050;-73
2021/12/15 05:28:00;;;;;;;10.30;2.83;;;11.40;99.90;;;;;;5004821;28;20758;-73
2021/12/15 05:30:28;;;;;;;6.55;2.65;;;11.40;99.90;;;;;;5003574;28;20050;-74
2021/12/15 05:32:56;;;;;;;7.05;2.88;;;11.40;99.90;;;;;;4989500;28;20057;-73
2021/12/15 05:35:24;;;;;;;9.35;3.10;;;11.40;99.90;;;;;;4989727;28;20502;-73
2021/12/15 05:37:55;;;;;;;7.93;2.65;;;11.40;99.90;;;;;;4988342;28;20054;-73
2021/12/15 05:40:24;;;;;;;10.18;3.22;;;11.40;99.90;;;;;;4989846;28;20054;-73
2021/12/15 05:42:56;;;;;;;11.50;3.17;;;11.40;99.90;;;;;;5004385;28;20046;-73
2021/12/15 05:45:30;;;;;;;7.22;3.28;;;11.40;99.90;;;;;;4988948;28;20062;-73
2021/12/15 05:47:59;;;;;;;11.48;3.08;;;11.40;99.90;;;;;;4987764;28;20054;-73
2021/12/15 05:50:29;;;;;;;9.35;3.42;;;11.40;99.90;;;;;;5003666;28;20057;-72
2021/12/15 05:52:58;;;;;;;11.13;3.30;;;11.40;99.90;;;;;;4988977;28;20514;-73
2021/12/15 05:55:26;;;;;;;12.90;3.80;;;11.40;99.90;;;;;;5003935;28;20046;-73
2021/12/15 05:57:53;;;;;;;;;;;11.40;99.90;;;;;;4989471;28;20054;-73
2021/12/15 06:00:27;;;;;;;13.23;3.75;;;11.40;99.90;;;;;;5020088;28;19925;-73
2021/12/15 06:02:56;;;;;;;13.23;4.13;;;11.40;99.90;;;;;;4988808;28;20050;-73
2021/12/15 06:05:25;;;;;;;10.88;3.90;;;11.40;99.90;;;;;;4987977;28;20049;-73
2021/12/15 06:07:53;;;;;;;12.85;4.00;;;11.40;99.90;;;;;;4987306;28;20061;-73
2021/12/15 06:10:26;;;;;;;10.70;3.92;;;11.40;99.90;;;;;;4988815;28;20050;-73
2021/12/15 06:12:55;;;;;;;14.20;4.05;;;11.40;99.90;;;;;;4988770;28;20047;-74
2021/12/15 06:15:26;;;;;;;10.27;3.95;;;11.40;99.90;;;;;;5003489;28;20042;-73
2021/12/15 06:18:07;;;;;;;13.80;4.32;;;11.40;99.90;;;;;;4987246;28;20407;-73
2021/12/15 06:20:36;;;;;;;12.32;3.72;;;11.40;99.90;;;;;;4986749;28;20053;-73
2021/12/15 06:23:10;;;;;;;13.23;4.03;;;11.40;99.90;;;;;;4988182;28;20050;-74
2021/12/15 06:25:40;;;;;;;12.15;4.30;;;11.40;99.90;;;;;;4987886;28;20447;-73
2021/12/15 06:28:08;;;;;;;13.82;4.05;;;11.40;99.90;;;;;;4987653;28;20411;-74
2021/12/15 06:30:37;;;;;;;14.80;4.15;;;11.40;99.90;;;;;;5019743;28;20042;-74
2021/12/15 06:33:06;;;;;;;13.00;3.75;;;11.40;99.90;;;;;;4988098;28;20050;-74
2021/12/15 06:35:35;;;;;;;12.00;4.40;;;11.40;99.90;;;;;;4986821;28;20042;-73
2021/12/15 06:38:04;;;;;;;14.27;3.90;;;11.40;99.90;;;;;;4986577;28;20050;-74
2021/12/15 06:40:33;;;;;;;11.23;3.40;;;11.40;99.90;;;;;;4986539;28;20038;-74
2021/12/15 06:43:02;;;;;;;6.97;2.60;;;11.40;99.90;;;;;;4987690;28;20061;-74
2021/12/15 06:45:39;;;;;;;8.98;3.13;;;11.40;99.90;;;;;;4986345;28;20046;-74
2021/12/15 06:59:11;;;;;;;10.65;2.50;;;11.60;99.90;;;;;;5002463;28;20054;-74
2021/12/15 07:01:39;;;;;;;7.45;2.25;;;11.50;99.90;;;;;;4986132;28;20071;-74
2021/12/15 07:04:07;;;;;;;;;;;11.60;99.90;;;;;;5002985;28;20065;-74
2021/12/15 07:06:36;;;;;;;6.20;2.17;;;11.60;99.90;;;;;;4986155;28;19925;-74
2021/12/15 07:09:05;;;;;;;9.88;2.70;;;11.60;99.90;;;;;;4987562;28;20049;-74
2021/12/15 07:11:33;;;;;;;7.85;2.33;;;11.60;99.90;;;;;;4986179;28;20056;-73
2021/12/15 07:14:01;;;;;;;7.28;2.35;;;11.50;99.90;;;;;;4987213;28;20054;-74
2021/12/15 07:16:31;;;;;;;6.38;2.15;;;11.60;99.90;;;;;;4969217;28;20577;-73
2021/12/15 07:19:09;;;;;;;11.32;2.53;;;11.60;99.90;;;;;;4987350;28;20073;-74
2021/12/15 07:21:40;;;;;;;7.38;2.20;;;11.60;99.90;;;;;;4985834;28;20062;-73
2021/12/15 07:24:08;;;;;;;8.25;2.50;;;11.60;99.90;;;;;;4987396;28;20383;-73
2021/12/15 07:26:36;;;;;;;11.95;2.28;;;11.50;99.90;;;;;;4987417;28;20061;-73
2021/12/15 07:29:03;;;;;;;6.45;2.03;;;11.50;99.90;;;;;;4986948;28;20043;-73
2021/12/15 07:31:31;;;;;;;7.00;2.10;;;11.50;99.90;;;;;;4987016;28;20050;-75
2021/12/15 07:33:59;;;;;;;7.20;2.30;;;11.60;99.90;;;;;;4985880;28;20054;-73
2021/12/15 07:36:26;;;;;;;7.47;2.00;;;11.60;99.90;;;;;;4987004;28;20058;-73
2021/12/15 07:38:56;;;;;;;8.98;2.92;;;11.60;99.90;;;;;;4985702;28;20101;-73
2021/12/15 07:41:29;;;;;;;5.63;2.15;;;11.60;99.90;;;;;;4984941;28;20463;-73
2021/12/15 07:44:02;;;;;;;7.95;2.45;;;11.60;99.90;;;;;;5001849;28;20063;-73
2021/12/15 07:46:50;;;;;;;10.77;2.97;;;11.60;99.90;;;;;;4984021;28;20046;-73
2021/12/15 07:49:20;;;;;;;10.75;2.88;;;11.60;99.90;;;;;;4986792;28;20042;-74
2021/12/15 07:51:52;;;;;;;8.65;3.20;;;11.60;99.90;;;;;;4981023;28;20049;-75
2021/12/15 07:54:21;;;;;;;10.95;3.60;;;11.60;99.90;;;;;;4981403;28;20045;-73
2021/12/15 07:56:49;;;;;;;10.00;3.70;;;11.60;99.90;;;;;;4997511;28;20046;-73
2021/12/15 07:59:18;;;;;;;7.07;3.25;;;11.60;99.90;;;;;;4965285;28;20054;-74
2021/12/15 08:01:45;;;;;;;9.32;3.35;;;11.60;99.90;;;;;;4995914;28;20047;-73
2021/12/15 08:04:17;;;;;;;10.57;3.63;;;11.50;99.90;;;;;;4978557;28;20054;-73
2021/12/15 08:06:46;;;;;;;11.45;3.53;;;11.50;99.90;;;;;;4977408;28;20046;-74
2021/12/15 08:09:19;;;;;;;11.75;3.40;;;11.60;99.90;;;;;;4987418;28;20054;-74
2021/12/15 08:11:47;;;;;;;11.75;3.80;;;11.60;99.90;;;;;;4972354;28;20421;-72
2021/12/15 08:14:15;;;;;;;12.05;3.38;;;11.60;99.90;;;;;;4987849;28;20054;-72
2021/12/15 08:16:43;;;;;;;11.23;3.53;;;11.60;99.90;;;;;;4968898;28;20050;-73
2021/12/15 08:19:15;;;;;;;10.38;3.78;;;11.50;99.90;;;;;;5001300;28;20057;-73
2021/12/15 08:21:43;;;;;;;10.75;3.80;;;11.60;99.90;;;;;;4985297;28;20534;-73
2021/12/15 08:24:11;;;;;;;14.18;4.10;;;11.60;99.90;;;;;;4984836;28;20096;-73
2021/12/15 08:26:39;;;;;;;16.17;4.53;;;11.60;99.90;;;;;;4983545;28;20476;-73
2021/12/15 08:29:07;;;;;;;14.63;4.72;;;11.60;99.90;;;;;;4985271;28;20043;-74
2021/12/15 08:31:35;;;;;;;16.80;5.50;;;11.60;99.90;;;;;;4967935;28;20054;-74
2021/12/15 08:34:03;;;;;;;18.65;4.95;;;11.60;99.90;;;;;;4984113;28;20050;-74
2021/12/15 08:36:31;;;;;;;13.77;4.55;;;11.60;99.90;;;;;;4985494;28;20057;-74
2021/12/15 08:38:59;;;;;;;14.38;5.25;;;11.60;99.90;;;;;;4983972;28;20058;-73
2021/12/15 08:41:29;;;;;;;15.82;4.90;;;11.60;99.90;;;;;;4986079;28;20045;-74
2021/12/15 08:43:58;;;;;;;18.13;5.53;;;11.60;99.90;;;;;;4986302;28;20053;-75
2021/12/15 08:46:31;;;;;;;12.90;5.20;;;11.60;99.90;;;;;;5001200;28;20427;-75
2021/12/15 08:49:00;;;;;;;14.07;5.22;;;11.60;99.90;;;;;;4995111;28;20051;-74
2021/12/15 08:51:29;;;;;;;16.63;5.38;;;11.60;99.90;;;;;;4999586;28;20038;-73
2021/12/15 08:54:01;;;;;;;11.25;5.53;;;11.60;99.90;;;;;;4986586;28;20069;-72
2021/12/15 08:56:29;;;;;;;19.48;5.32;;;11.70;99.90;;;;;;4985158;28;20049;-73
2021/12/15 08:58:57;;;;;;;16.98;5.63;;;11.60;99.90;;;;;;4983352;28;20046;-73
2021/12/15 09:01:26;;;;;;;14.27;5.45;;;11.70;99.90;;;;;;4979632;28;20050;-73
2021/12/15 09:03:54;;;;;;;16.80;5.55;;;11.70;99.90;;;;;;4984598;28;20051;-73
2021/12/15 09:06:22;;;;;;;15.60;5.78;;;11.70;99.90;;;;;;4986070;28;20406;-73
2021/12/15 09:08:50;;;;;;;;;;;11.70;99.90;;;;;;4985894;28;20050;-74
2021/12/15 09:11:22;;;;;;;;;;;11.70;99.90;;;;;;4970274;28;19929;-74
2021/12/15 09:13:52;;;;;;;14.27;5.40;;;11.70;99.90;;;;;;4988955;28;19925;-75
2021/12/15 09:16:22;;;;;;;14.48;5.90;;;11.70;99.90;;;;;;4984031;28;20517;-74
2021/12/15 09:18:51;;;;;;;13.20;5.45;;;11.70;99.90;;;;;;4983026;28;20047;-74
2021/12/15 09:21:22;;;;;;;17.27;5.35;;;11.80;99.90;;;;;;4988358;28;20049;-75
2021/12/15 09:23:51;;;;;;;13.18;5.45;;;11.80;99.90;;;;;;4986546;28;20046;-75
2021/12/15 09:26:20;;;;;;;14.50;5.97;;;11.80;99.90;;;;;;4987197;28;20050;-75
2021/12/15 09:28:49;;;;;;;;;;;11.80;99.90;;;;;;4987504;28;20046;-75
2021/12/15 09:31:17;;;;;;;12.10;5.00;;;11.80;99.90;;;;;;4997641;28;19925;-75
2021/12/15 09:33:48;;;;;;;13.00;5.00;;;11.80;99.90;;;;;;4986504;28;20586;-76
2021/12/15 09:36:19;;;;;;;11.38;5.38;;;11.80;99.90;;;;;;4987533;28;20517;-75
2021/12/15 09:38:50;;;;;;;17.80;4.93;;;11.90;99.90;;;;;;4986472;28;20518;-74
2021/12/15 09:41:19;;;;;;;16.42;5.50;;;11.90;99.90;;;;;;4986854;28;20407;-74
2021/12/15 09:43:50;;;;;;;16.98;5.47;;;11.90;99.90;;;;;;5002885;28;20818;-75
2021/12/15 10:03:08;;;;;;;13.07;4.88;;;12.00;99.90;;;;;;4988273;28;20047;-72
2021/12/15 10:05:48;;;;;;;18.33;5.28;;;12.10;99.90;;;;;;4988259;28;20042;-72
2021/12/15 10:19:39;;;;;;;14.13;4.63;;;12.20;99.90;;;;;;4988373;28;20050;-74
2021/12/15 10:22:32;;;;;;;14.98;4.32;;;12.20;99.90;;;;;;4988089;28;20043;-73
2021/12/15 10:25:24;;;;;;;12.88;4.45;;;12.20;99.90;;;;;;5002452;28;20061;-74
2021/12/15 10:27:59;;;;;;;11.88;4.32;;;12.30;99.90;;;;;;4988044;28;20055;-73
2021/12/15 10:30:31;;;;;;;11.13;4.05;;;12.30;99.90;;;;;;4986916;28;20054;-74
2021/12/15 10:33:24;;;;;;;9.25;3.70;;;12.30;99.90;;;;;;4987032;28;20053;-74
2021/12/15 10:35:57;;;;;;;8.02;3.40;;;12.30;99.90;;;;;;4984752;28;20053;-74
2021/12/15 10:38:51;;;;;;;8.65;3.28;;;12.40;99.90;;;;;;4985722;28;20050;-74
2021/12/15 10:41:23;;;;;;;7.97;3.08;;;12.40;99.90;;;;;;4987025;28;20042;-72
2021/12/15 10:44:13;;;;;;;9.65;3.30;;;12.40;99.90;;;;;;4987639;28;20054;-74
2021/12/15 10:46:46;;;;;;;11.27;3.13;;;12.50;99.90;;;;;;4986937;28;20625;-74
2021/12/15 10:49:18;;;;;;;10.32;3.63;;;12.50;99.90;;;;;;4986252;28;20050;-74
2021/12/15 10:52:00;;;;;;;9.00;3.45;;;12.50;99.90;;;;;;4970532;28;20060;-74
2021/12/15 10:54:38;;;;;;;11.02;3.60;;;12.50;99.90;;;;;;4985417;28;20062;-73
2021/12/15 10:57:16;;;;;;;;;;;12.50;99.90;;;;;;4974264;28;20095;-73
2021/12/15 10:59:52;;;;;;;11.40;3.58;;;12.50;99.90;;;;;;4976333;28;19922;-72
2021/12/15 11:02:38;;;;;;;10.23;3.58;;;12.50;99.90;;;;;;4981148;28;20047;-73
2021/12/15 11:05:08;;;;;;;11.00;3.40;;;12.50;99.90;;;;;;4999345;28;20516;-72
2021/12/15 11:07:41;;;;;;;8.82;3.53;;;12.50;99.90;;;;;;4972978;28;20065;-76
2021/12/15 11:10:12;;;;;;;9.77;3.47;;;12.60;99.90;;;;;;4987466;28;20423;-73
2021/12/15 11:12:51;;;;;;;10.55;3.75;;;12.60;99.90;;;;;;4987428;28;20046;-74
2021/12/15 11:15:25;;;;;;;11.13;3.60;;;12.60;99.90;;;;;;4987458;28;20050;-73
2021/12/15 11:18:10;;;;;;;12.45;3.50;;;12.50;99.90;;;;;;4987589;28;20069;-73
2021/12/15 11:20:57;;;;;;;11.25;3.88;;;12.60;99.90;;;;;;4978585;28;20058;-73
2021/12/15 11:23:28;;;;;;;9.88;3.60;;;12.60;99.90;;;;;;4978692;28;20053;-72
2021/12/15 11:25:59;;;;;;;9.15;3.72;;;12.70;99.90;;;;;;4985238;28;20073;-75
2021/12/15 11:28:31;;;;;;;13.05;4.05;;;12.70;99.90;;;;;;4984343;28;20466;-72
2021/12/15 11:30:59;;;;;;;9.13;3.88;;;12.70;99.90;;;;;;4982083;28;20085;-78
2021/12/15 11:33:37;;;;;;;15.07;4.25;;;12.70;99.90;;;;;;4990266;28;20061;-78
2021/12/15 11:36:18;;;;;;;11.15;3.92;;;12.70;99.90;;;;;;4984215;28;20058;-76
2021/12/15 11:38:51;;;;;;;12.18;4.05;;;12.70;99.90;;;;;;4981096;28;20394;-74
2021/12/15 11:41:32;;;;;;;13.98;4.18;;;12.70;99.90;;;;;;4983938;28;20061;-73
2021/12/15 11:44:08;;;;;;;17.55;3.83;;;12.80;99.90;;;;;;4984213;28;20641;-75
2021/12/15 11:46:50;;;;;;;12.05;4.32;;;12.80;99.90;;;;;;4985045;28;20049;-73
2021/12/15 11:49:29;;;;;;;13.57;4.40;;;12.80;99.90;;;;;;4984443;28;20069;-73
2021/12/15 11:52:14;;;;;;;10.82;3.95;;;12.80;99.90;;;;;;4988673;28;20042;-74
2021/12/15 11:54:49;;;;;;;11.52;4.13;;;12.90;99.90;;;;;;5005636;28;20046;-74
2021/12/15 11:57:19;;;;;;;13.50;3.97;;;12.90;99.90;;;;;;4983779;28;20039;-87
2021/12/15 11:59:53;;;;;;;11.70;4.28;;;12.90;99.90;;;;;;4991335;28;20065;-80
2021/12/15 12:02:24;;;;;;;16.27;4.88;;;13.00;99.90;;;;;;4985297;28;20060;-76
2021/12/15 12:04:58;;;;;;;11.63;4.05;;;13.00;99.90;;;;;;5010286;28;20055;-79
2021/12/15 12:07:43;;;;;;;15.68;4.43;;;13.00;99.90;;;;;;4982708;28;20054;-78
2021/12/15 12:10:44;;;;;;;15.02;4.30;;;13.00;99.90;;;;;;4983520;28;20058;-86
2021/12/15 12:13:24;;;;;;;14.50;4.38;;;13.00;99.90;;;;;;4979238;28;20054;-84
2021/12/15 12:15:58;;;;;;;17.90;4.85;;;13.00;99.90;;;;;;4986019;28;20051;-77
2021/12/15 12:18:28;;;;;;;13.52;4.55;;;13.00;99.90;;;;;;4994819;28;20049;-74
2021/12/15 12:21:08;;;;;;;11.45;4.10;;;13.00;99.90;;;;;;4984610;28;20054;-82
2021/12/15 12:23:39;;;;;;;15.27;4.57;;;13.00;99.90;;;;;;4984519;28;20046;-73
2021/12/15 12:26:10;;;;;;;15.45;4.70;;;13.10;99.90;;;;;;4983223;28;20046;-81
2021/12/15 12:28:40;;;;;;;10.63;4.53;;;13.10;99.90;;;;;;4984111;28;20046;-76
2021/12/15 12:31:19;;;;;;;13.05;4.65;;;13.10;99.90;;;;;;4984557;28;20527;-77
2021/12/15 12:33:49;;;;;;;12.40;4.38;;;13.10;99.90;;;;;;4983701;28;20547;-75
2021/12/15 12:36:30;;;;;;;16.25;4.68;;;13.10;99.90;;;;;;4967341;28;20066;-79
2021/12/15 12:39:05;;;;;;;18.92;4.65;;;13.10;99.90;;;;;;4992762;28;20446;-81
2021/12/15 12:41:43;;;;;;;12.63;4.45;;;13.10;99.90;;;;;;4989373;28;20478;-77
2021/12/15 12:44:13;;;;;;;11.38;4.10;;;13.20;99.90;;;;;;4969744;28;20050;-83
2021/12/15 12:46:54;;;;;;;12.23;4.30;;;13.20;99.90;;;;;;4970410;28;20070;-79
2021/12/15 12:49:54;;;;;;;13.63;4.15;;;13.20;99.90;;;;;;4967584;28;20058;-80
2021/12/15 13:01:17;;;;;;;12.02;4.38;;;13.10;99.90;;;;;;4987673;28;20075;-76
2021/12/15 13:03:52;;;;;;;11.52;4.15;;;13.10;99.90;;;;;;4988031;28;20057;-79
2021/12/15 13:06:25;;;;;;;10.63;4.28;;;13.10;99.90;;;;;;4987602;28;20046;-75
2021/12/15 13:08:59;;;;;;;10.55;4.40;;;13.10;99.90;;;;;;5003987;28;20046;-75
2021/12/15 13:11:36;;;;;;;17.38;5.88;;;13.10;99.90;;;;;;4987235;28;20042;-76
2021/12/15 13:14:30;;;;;;;11.73;4.43;;;13.10;99.90;;;;;;4988699;28;20839;-75
2021/12/15 13:17:03;;;;;;;10.75;3.90;;;13.10;99.90;;;;;;4989483;28;20049;-75
2021/12/15 13:19:32;;;;;;;12.20;3.70;;;13.10;99.90;;;;;;4971761;28;20050;-75
2021/12/15 13:22:30;;;;;;;11.02;3.45;;;13.10;99.90;;;;;;4989594;28;20054;-75
2021/12/15 13:31:24;;;;;;;11.38;4.03;;;13.00;99.90;;;;;;4988875;28;20050;-76
2021/12/15 13:33:58;;;;;;;10.80;4.10;;;13.00;99.90;;;;;;4969546;28;20047;-75
2021/12/15 13:36:32;;;;;;;11.48;4.35;;;13.00;99.90;;;;;;4969491;28;20419;-76
2021/12/15 13:39:08;;;;;;;12.05;4.32;;;13.00;99.90;;;;;;4969375;28;20409;-75
2021/12/15 13:44:40;;;;;;;11.70;4.43;;;13.00;99.90;;;;;;4988846;28;20403;-75
2021/12/15 13:47:09;;;;;;;12.45;4.20;;;12.90;99.90;;;;;;4988277;28;20054;-75
2021/12/15 13:49:51;;;;;;;14.45;4.70;;;12.90;99.90;;;;;;4987267;28;20045;-75
2021/12/15 13:52:43;;;;;;;13.98;4.88;;;12.90;99.90;;;;;;5001971;28;20069;-75
2021/12/15 13:55:27;;;;;;;11.02;4.53;;;12.90;99.90;;;;;;4987018;28;20050;-75
2021/12/15 13:58:10;;;;;;;13.85;5.55;;;12.90;99.90;;;;;;4987120;28;20061;-75
2021/12/15 14:00:46;;;;;;;16.98;5.13;;;12.90;99.90;;;;;;4985644;28;20047;-76
2021/12/15 14:03:22;;;;;;;16.55;5.32;;;12.80;99.90;;;;;;4986788;28;20047;-74
2021/12/15 14:06:19;;;;;;;12.68;4.80;;;12.80;99.90;;;;;;4987499;28;20047;-73
2021/12/15 14:08:55;;;;;;;13.50;5.43;;;12.80;99.90;;;;;;4983584;28;21243;-74
2021/12/15 14:11:29;;;;;;;14.10;4.78;;;12.80;99.90;;;;;;4985532;28;20503;-73
2021/12/15 14:14:01;;;;;;;13.05;5.30;;;12.80;99.90;;;;;;4984752;28;20399;-73
2021/12/15 14:16:33;;;;;;;12.55;5.00;;;12.80;99.90;;;;;;4985901;28;20038;-73
2021/12/15 14:19:05;;;;;;;12.40;4.95;;;12.80;99.90;;;;;;4978798;28;20514;-74
2021/12/15 14:21:36;;;;;;;12.63;4.82;;;12.80;99.90;;;;;;4983713;28;20054;-74
2021/12/15 14:24:05;;;;;;;11.35;4.57;;;12.70;99.90;;;;;;4979349;28;20049;-75
2021/12/15 14:26:42;;;;;;;15.10;5.43;;;12.70;99.90;;;;;;4970520;28;20050;-74
2021/12/15 14:29:15;;;;;;;11.55;5.20;;;12.70;99.90;;;;;;4985718;28;20382;-73
2021/12/15 14:31:45;;;;;;;12.43;5.00;;;12.70;99.90;;;;;;4984754;28;20767;-73
2021/12/15 14:34:28;;;;;;;14.18;5.20;;;12.70;99.90;;;;;;4997497;28;20173;-74
2021/12/15 14:36:59;;;;;;;11.52;4.85;;;12.70;99.90;;;;;;5018270;28;20054;-74
2021/12/15 14:39:32;;;;;;;15.60;4.97;;;12.70;99.90;;;;;;5001616;28;20042;-73
2021/12/15 14:42:09;;;;;;;15.43;5.35;;;12.70;99.90;;;;;;4985882;28;20084;-75
2021/12/15 14:44:41;;;;;;;13.37;5.20;;;12.60;99.90;;;;;;4986707;28;20074;-74